Time;durP1;ratioP1;P1;durP2;ratioP2;P2;SDS_P1;SDS_P2;PMS_P1;PMS_P2;Temp;Humidity;BMP_temperature;BMP_pressure;BME280_temperature;BME280_humidity;BME280_pressure;Samples;Min_cycle;Max_cycle;Signal;HPM_P1;HPM_P2
2021/04/26 00:08:50;;;;;;;0.70;0.70;;;4.20;65.80;;;;;;6131251;23;20025;-92
2021/04/26 00:12:00;;;;;;;;;;;;;;;;;;;;;
2021/04/26 00:25:01;;;;;;;2.33;0.65;;;4.00;63.80;;;;;;6132887;23;20005;-92
2021/04/26 00:28:21;;;;;;;;;;;;;;;;;;;;;
2021/04/26 00:31:43;;;;;;;1.05;0.70;;;3.90;64.40;;;;;;6132898;23;20036;-93
2021/04/26 00:34:22;;;;;;;3.20;0.75;;;3.90;64.00;;;;;;6100978;23;20006;-93
2021/04/26 00:37:26;;;;;;;1.20;0.85;;;3.90;64.30;;;;;;6106955;23;20009;-93
2021/04/26 00:43:31;;;;;;;1.30;0.90;;;3.80;64.50;;;;;;6116216;23;20069;-93
2021/04/26 00:46:21;;;;;;;;;;;;;;;;;;;;;
2021/04/26 00:48:52;;;;;;;0.65;0.65;;;3.80;66.40;;;;;;6122327;23;20025;-93
2021/04/26 00:51:41;;;;;;;1.13;0.90;;;3.80;65.90;;;;;;6107718;23;20006;-93
2021/04/26 00:54:38;;;;;;;2.95;0.93;;;3.70;64.40;;;;;;6106480;23;20552;-92
2021/04/26 00:57:28;;;;;;;3.53;0.85;;;3.70;65.00;;;;;;6107607;23;20010;-93
2021/04/26 01:00:00;;;;;;;1.33;0.70;;;3.60;65.50;;;;;;6100633;23;20048;-92
2021/04/26 01:02:39;;;;;;;1.15;1.00;;;3.70;65.80;;;;;;6106652;23;20343;-92
2021/04/26 01:05:23;;;;;;;1.27;0.85;;;3.60;65.50;;;;;;6106977;23;20094;-93
2021/04/26 01:07:52;;;;;;;1.85;0.98;;;3.60;67.10;;;;;;6107118;23;20037;-92
2021/04/26 01:10:56;;;;;;;2.55;1.10;;;3.50;65.70;;;;;;6106800;23;20315;-93
2021/04/26 01:13:55;;;;;;;2.55;0.93;;;3.50;66.00;;;;;;6106686;23;20303;-92
2021/04/26 01:16:50;;;;;;;3.00;0.80;;;3.40;67.30;;;;;;6107348;23;20102;-93
2021/04/26 01:19:44;;;;;;;0.70;0.60;;;3.40;66.90;;;;;;6107646;23;20056;-92
2021/04/26 01:22:45;;;;;;;1.75;0.90;;;3.30;67.70;;;;;;6131310;23;20077;-93
2021/04/26 01:25:20;;;;;;;2.17;0.90;;;3.30;68.90;;;;;;6107104;23;20017;-92
2021/04/26 01:28:10;;;;;;;1.70;1.10;;;3.20;69.40;;;;;;6131767;23;20006;-92
2021/04/26 01:31:16;;;;;;;0.77;0.70;;;3.10;69.50;;;;;;6132587;23;20555;-92
2021/04/26 01:33:49;;;;;;;7.10;1.38;;;3.10;70.30;;;;;;6131357;23;20567;-92
2021/04/26 01:36:21;;;;;;;1.85;1.10;;;3.10;69.70;;;;;;6131599;23;20034;-93
2021/04/26 01:38:47;;;;;;;1.52;0.80;;;3.00;69.20;;;;;;6131435;23;20005;-93
2021/04/26 01:41:20;;;;;;;1.20;0.88;;;3.00;69.80;;;;;;6131161;23;20364;-91
2021/04/26 01:43:47;;;;;;;2.53;0.88;;;3.00;70.20;;;;;;6131239;23;20025;-91
2021/04/26 01:46:19;;;;;;;2.20;1.35;;;3.00;70.50;;;;;;6132639;23;20008;-93
2021/04/26 01:48:49;;;;;;;1.15;0.95;;;2.90;70.30;;;;;;6131805;23;20013;-93
2021/04/26 01:51:18;;;;;;;0.98;0.80;;;2.90;70.10;;;;;;6130972;23;20017;-91
2021/04/26 01:53:50;;;;;;;1.83;0.88;;;2.80;70.30;;;;;;6105976;23;20014;-92
2021/04/26 01:56:17;;;;;;;2.25;0.95;;;2.80;70.10;;;;;;6106660;23;20037;-92
2021/04/26 01:58:52;;;;;;;2.05;0.85;;;2.80;70.60;;;;;;6106904;23;20014;-92
2021/04/26 02:01:25;;;;;;;1.90;0.90;;;2.80;70.30;;;;;;6105759;23;20017;-92
2021/04/26 02:04:04;;;;;;;5.53;1.02;;;2.70;70.70;;;;;;6106283;23;20010;-93
2021/04/26 02:06:56;;;;;;;2.58;0.73;;;2.70;70.40;;;;;;6106760;23;20072;-91
2021/04/26 02:09:22;;;;;;;1.17;1.08;;;2.70;71.20;;;;;;6130580;23;20021;-91
2021/04/26 02:11:49;;;;;;;1.30;1.00;;;2.60;71.30;;;;;;6130868;23;20544;-92
2021/04/26 02:14:17;;;;;;;1.17;0.90;;;2.60;71.60;;;;;;6106306;23;20013;-92
2021/04/26 02:16:59;;;;;;;1.10;1.00;;;2.60;72.00;;;;;;6105900;23;20020;-92
2021/04/26 02:19:30;;;;;;;2.75;1.58;;;2.60;71.90;;;;;;6106832;23;20025;-92
2021/04/26 02:21:59;;;;;;;5.25;1.10;;;2.50;71.20;;;;;;6106115;23;20005;-92
2021/04/26 02:24:25;;;;;;;1.10;0.90;;;2.50;72.10;;;;;;6106122;23;20005;-92
2021/04/26 02:26:56;;;;;;;1.10;0.80;;;2.40;72.40;;;;;;6103881;23;20605;-92
2021/04/26 02:29:29;;;;;;;0.80;0.73;;;2.40;73.10;;;;;;6106934;23;20073;-92
2021/04/26 02:32:17;;;;;;;;;;;;;;;;;;;;;
2021/04/26 02:34:49;;;;;;;1.10;1.00;;;2.30;73.30;;;;;;6131155;23;20036;-92
2021/04/26 02:37:20;;;;;;;1.67;0.85;;;2.30;73.40;;;;;;6106183;23;20013;-92
2021/04/26 02:39:48;;;;;;;1.73;0.88;;;2.30;73.80;;;;;;6106638;23;20010;-92
2021/04/26 02:42:24;;;;;;;1.35;0.70;;;2.30;73.80;;;;;;6129521;23;20010;-91
2021/04/26 02:44:56;;;;;;;0.95;0.90;;;2.30;74.30;;;;;;6130696;23;20334;-92
2021/04/26 02:47:35;;;;;;;1.55;1.15;;;2.20;73.90;;;;;;6129602;23;20006;-92
2021/04/26 02:50:13;;;;;;;1.50;0.93;;;2.20;74.30;;;;;;6130842;23;20067;-91
2021/04/26 02:52:41;;;;;;;1.33;1.02;;;2.20;73.40;;;;;;6130614;23;20006;-91
2021/04/26 02:55:08;;;;;;;2.58;1.40;;;2.20;73.60;;;;;;6105962;23;20085;-91
2021/04/26 02:57:38;;;;;;;3.15;1.02;;;2.20;74.10;;;;;;6105798;23;20041;-91
2021/04/26 03:00:10;;;;;;;4.03;1.10;;;2.20;74.30;;;;;;6105895;23;20013;-91
2021/04/26 03:02:37;;;;;;;1.00;0.80;;;2.20;74.50;;;;;;6105364;23;20576;-92
2021/04/26 03:05:20;;;;;;;3.88;1.10;;;2.10;74.30;;;;;;6106143;23;19998;-92
2021/04/26 03:07:46;;;;;;;3.88;1.15;;;2.10;74.70;;;;;;6109416;23;20053;-90
2021/04/26 03:10:17;;;;;;;5.25;1.27;;;2.10;74.10;;;;;;6109841;23;20060;-91
2021/04/26 03:12:51;;;;;;;2.45;1.42;;;2.10;73.90;;;;;;6109167;23;20093;-90
2021/04/26 03:15:24;;;;;;;3.60;1.30;;;2.10;74.70;;;;;;6134438;23;20167;-90
2021/04/26 03:17:53;;;;;;;1.70;1.40;;;2.00;74.90;;;;;;6115580;23;20067;-91
2021/04/26 03:20:20;;;;;;;2.10;1.10;;;2.10;75.00;;;;;;6133593;23;20033;-90
2021/04/26 03:22:47;;;;;;;1.90;1.17;;;2.00;74.90;;;;;;6133043;23;20006;-91
2021/04/26 03:25:14;;;;;;;2.55;1.30;;;2.00;74.30;;;;;;6133343;23;20010;-92
2021/04/26 03:27:44;;;;;;;1.25;1.15;;;2.00;74.30;;;;;;6133477;23;20002;-89
2021/04/26 03:30:12;;;;;;;1.83;1.25;;;2.00;75.30;;;;;;6133613;23;20044;-91
2021/04/26 03:32:42;;;;;;;2.10;1.23;;;2.00;75.90;;;;;;6133596;23;20075;-92
2021/04/26 03:35:11;;;;;;;2.25;1.50;;;1.90;75.80;;;;;;6133622;23;20361;-92
2021/04/26 03:37:39;;;;;;;4.15;1.30;;;1.90;76.20;;;;;;6133258;23;20038;-92
2021/04/26 03:40:08;;;;;;;1.92;1.23;;;1.90;76.20;;;;;;6109418;23;20509;-92
2021/04/26 03:42:39;;;;;;;2.70;1.42;;;1.90;76.20;;;;;;6132834;23;20076;-92
2021/04/26 03:45:11;;;;;;;1.35;1.05;;;1.90;75.80;;;;;;6109216;23;20069;-92
2021/04/26 03:47:40;;;;;;;6.63;1.65;;;1.90;75.90;;;;;;6133340;23;20029;-91
2021/04/26 03:50:12;;;;;;;3.95;1.80;;;1.80;75.70;;;;;;6109191;23;20095;-91
2021/04/26 03:52:38;;;;;;;;;;;1.80;75.40;;;;;;6108854;23;20094;-92
2021/04/26 03:55:05;;;;;;;2.80;1.60;;;1.80;75.80;;;;;;6128303;23;20238;-91
2021/04/26 03:57:35;;;;;;;2.60;1.63;;;1.70;76.10;;;;;;6107113;23;20006;-92
2021/04/26 04:00:02;;;;;;;3.20;1.15;;;1.70;76.20;;;;;;6133387;23;20041;-91
2021/04/26 04:02:33;;;;;;;2.53;1.40;;;1.70;76.40;;;;;;6108676;23;20374;-92
2021/04/26 04:04:59;;;;;;;1.88;1.35;;;1.70;77.30;;;;;;6133041;23;20343;-90
2021/04/26 04:07:28;;;;;;;2.17;1.58;;;1.70;77.90;;;;;;6133138;23;20008;-90
2021/04/26 04:09:56;;;;;;;3.42;1.60;;;1.70;78.40;;;;;;6109186;23;20013;-90
2021/04/26 04:12:22;;;;;;;1.80;1.40;;;1.70;78.90;;;;;;6132760;23;20291;-91
2021/04/26 04:14:48;;;;;;;4.57;1.58;;;1.70;78.80;;;;;;6133532;23;20013;-90
2021/04/26 04:17:19;;;;;;;3.20;1.48;;;1.70;78.60;;;;;;6108556;23;20014;-91
2021/04/26 04:19:45;;;;;;;3.33;1.50;;;1.80;79.10;;;;;;6131577;23;20009;-90
2021/04/26 04:22:35;;;;;;;3.13;1.58;;;1.80;79.40;;;;;;6106708;23;20026;-91
2021/04/26 04:25:13;;;;;;;4.88;1.45;;;1.80;79.40;;;;;;6131271;23;20002;-91
2021/04/26 04:27:44;;;;;;;3.85;1.90;;;1.80;79.10;;;;;;6131299;23;20040;-90
2021/04/26 04:30:36;;;;;;;3.85;1.50;;;1.80;79.00;;;;;;6131185;23;20093;-92
2021/04/26 04:33:23;;;;;;;3.42;1.70;;;1.90;79.10;;;;;;6156260;23;20317;-91
2021/04/26 04:35:56;;;;;;;3.38;1.98;;;1.90;79.30;;;;;;6097348;23;20021;-91
2021/04/26 04:38:22;;;;;;;3.25;1.92;;;1.90;80.00;;;;;;6133145;23;20413;-92
2021/04/26 04:40:48;;;;;;;3.75;1.65;;;2.00;79.70;;;;;;6132741;23;20006;-91
2021/04/26 04:43:14;;;;;;;4.80;2.08;;;2.00;79.00;;;;;;6132716;23;19998;-93
2021/04/26 04:45:39;;;;;;;2.25;1.60;;;2.00;79.30;;;;;;6133044;23;20132;-92
2021/04/26 04:48:05;;;;;;;9.27;2.45;;;2.10;79.20;;;;;;6131005;23;20009;-93
2021/04/26 04:50:31;;;;;;;3.03;1.60;;;2.10;78.60;;;;;;6132325;23;20006;-94
2021/04/26 04:52:57;;;;;;;2.63;1.35;;;2.10;78.10;;;;;;6132954;23;20405;-91
2021/04/26 04:55:23;;;;;;;2.70;1.60;;;2.10;77.90;;;;;;6133598;23;20065;-93
2021/04/26 04:57:48;;;;;;;4.38;1.65;;;2.20;77.70;;;;;;6132712;23;20018;-91
2021/04/26 05:00:22;;;;;;;4.07;1.60;;;2.20;77.60;;;;;;6157466;23;20085;-92
2021/04/26 05:02:48;;;;;;;6.57;1.98;;;2.20;77.70;;;;;;6132629;23;20034;-92
2021/04/26 05:05:13;;;;;;;2.70;1.55;;;2.20;78.40;;;;;;6133654;23;20087;-92
2021/04/26 05:07:39;;;;;;;3.22;2.20;;;2.20;79.10;;;;;;6135630;23;20041;-91
2021/04/26 05:10:08;;;;;;;2.38;1.58;;;2.30;78.90;;;;;;6133617;23;20013;-92
2021/04/26 05:12:34;;;;;;;4.80;1.90;;;2.30;79.10;;;;;;6132710;23;20006;-92
2021/04/26 05:15:01;;;;;;;5.43;2.10;;;2.30;79.10;;;;;;6133229;23;20345;-92
2021/04/26 05:17:37;;;;;;;6.45;2.38;;;2.40;78.80;;;;;;6131625;23;20013;-92
2021/04/26 05:20:05;;;;;;;4.00;1.75;;;2.40;78.60;;;;;;6131675;23;20013;-93
2021/04/26 05:22:34;;;;;;;4.43;2.50;;;2.40;78.00;;;;;;6131485;23;20013;-92
2021/04/26 05:25:02;;;;;;;7.95;1.83;;;2.50;77.40;;;;;;6130520;23;20013;-92
2021/04/26 05:27:27;;;;;;;4.15;1.95;;;2.50;77.70;;;;;;6131618;23;20006;-92
2021/04/26 05:29:54;;;;;;;5.43;2.03;;;2.60;77.00;;;;;;6126434;23;20037;-92
2021/04/26 05:32:20;;;;;;;4.88;2.63;;;2.70;76.70;;;;;;6124681;23;20001;-92
2021/04/26 05:34:45;;;;;;;5.05;2.40;;;2.70;76.50;;;;;;6129169;23;20025;-92
2021/04/26 05:37:11;;;;;;;5.30;2.63;;;2.80;76.20;;;;;;6132131;23;20002;-91
2021/04/26 05:39:37;;;;;;;4.43;1.85;;;2.80;76.10;;;;;;6130540;23;20089;-92
2021/04/26 05:42:03;;;;;;;2.90;1.88;;;2.90;76.00;;;;;;6131390;23;20013;-91
2021/04/26 05:44:33;;;;;;;2.70;1.50;;;3.00;75.60;;;;;;6130921;23;20063;-92
2021/04/26 05:46:59;;;;;;;1.70;1.05;;;3.00;74.70;;;;;;6131357;23;20030;-92
2021/04/26 05:49:25;;;;;;;1.88;1.38;;;3.10;72.90;;;;;;6131381;23;20084;-93
2021/04/26 05:51:50;;;;;;;1.33;0.90;;;3.20;70.90;;;;;;6132017;23;20068;-92
2021/04/26 05:54:18;;;;;;;3.08;1.38;;;3.30;68.90;;;;;;6131247;23;20386;-94
2021/04/26 05:56:55;;;;;;;2.97;1.30;;;3.40;68.50;;;;;;6131990;23;20086;-92
2021/04/26 05:59:30;;;;;;;1.60;1.20;;;3.50;68.00;;;;;;6131628;23;20071;-92
2021/04/26 06:01:55;;;;;;;3.03;1.30;;;3.60;67.40;;;;;;6132010;23;20009;-92
2021/04/26 06:04:21;;;;;;;3.08;1.25;;;3.80;65.80;;;;;;6130978;23;20012;-92
2021/04/26 06:06:46;;;;;;;3.33;1.60;;;3.90;65.00;;;;;;6131754;23;20002;-92
2021/04/26 06:09:12;;;;;;;2.80;1.00;;;4.10;65.40;;;;;;6131448;23;20104;-92
2021/04/26 06:11:43;;;;;;;1.50;1.13;;;4.20;64.50;;;;;;6131635;23;20010;-93
2021/04/26 06:14:29;;;;;;;1.95;1.23;;;4.30;64.30;;;;;;6131082;23;20084;-92
2021/04/26 06:16:55;;;;;;;3.50;1.42;;;4.50;63.40;;;;;;6130948;23;20005;-91
2021/04/26 06:20:02;;;;;;;6.22;1.17;;;4.60;61.80;;;;;;6129416;23;20012;-93
2021/04/26 06:22:28;;;;;;;3.22;1.40;;;4.80;62.40;;;;;;6132166;23;20010;-93
2021/04/26 06:25:43;;;;;;;3.22;1.63;;;4.90;61.90;;;;;;6129909;23;20357;-92
2021/04/26 06:28:13;;;;;;;0.98;0.80;;;5.10;61.80;;;;;;6130367;23;20358;-93
2021/04/26 06:30:45;;;;;;;1.73;1.02;;;5.20;61.10;;;;;;6131081;23;20002;-92
2021/04/26 06:33:15;;;;;;;2.67;1.00;;;5.30;60.70;;;;;;6131202;23;20006;-93
2021/04/26 06:35:48;;;;;;;1.75;0.90;;;5.40;60.40;;;;;;6131047;23;20002;-93
2021/04/26 06:38:14;;;;;;;;;;;5.60;60.70;;;;;;6131470;23;20006;-91
2021/04/26 06:40:43;;;;;;;3.08;0.90;;;5.70;60.30;;;;;;6131025;23;20230;-92
2021/04/26 06:43:15;;;;;;;3.97;0.73;;;5.80;60.70;;;;;;6131433;23;20092;-93
2021/04/26 06:45:44;;;;;;;1.90;1.00;;;5.90;58.80;;;;;;6130232;23;20006;-93
2021/04/26 06:48:14;;;;;;;1.55;0.90;;;6.00;57.50;;;;;;6130321;23;20006;-93
2021/04/26 06:50:40;;;;;;;1.10;0.60;;;6.10;57.50;;;;;;6130925;23;20016;-92
2021/04/26 06:53:09;;;;;;;2.50;0.75;;;6.20;56.10;;;;;;6129711;23;20540;-92
2021/04/26 06:55:48;;;;;;;1.02;0.93;;;6.40;56.10;;;;;;6129684;23;20017;-93
2021/04/26 06:58:54;;;;;;;1.67;0.55;;;6.50;55.70;;;;;;6129212;23;20025;-92
2021/04/26 07:01:20;;;;;;;2.78;1.08;;;6.60;54.90;;;;;;6131703;23;20385;-93
2021/04/26 07:03:46;;;;;;;1.60;0.80;;;6.80;55.90;;;;;;6130157;23;20006;-91
2021/04/26 07:06:12;;;;;;;2.50;0.75;;;6.80;56.20;;;;;;6129035;23;20006;-91
2021/04/26 07:08:59;;;;;;;3.20;1.10;;;6.90;54.80;;;;;;6129898;23;20077;-93
2021/04/26 07:11:44;;;;;;;1.83;0.80;;;7.00;54.00;;;;;;6100095;23;20021;-91
2021/04/26 07:14:37;;;;;;;0.70;0.70;;;7.10;54.00;;;;;;6098787;23;20097;-93
2021/04/26 07:17:24;;;;;;;0.82;0.73;;;7.30;54.20;;;;;;6099649;23;20014;-92
2021/04/26 07:20:09;;;;;;;1.80;1.10;;;7.40;52.00;;;;;;6147792;23;20335;-93
2021/04/26 07:23:08;;;;;;;5.05;1.00;;;7.40;53.20;;;;;;6138338;23;20053;-93
2021/04/26 07:26:27;;;;;;;2.67;1.02;;;7.50;54.80;;;;;;6128359;23;20020;-94
2021/04/26 07:32:27;;;;;;;1.23;1.00;;;7.80;53.10;;;;;;6066442;23;20018;-92
2021/04/26 07:35:33;;;;;;;1.02;0.60;;;7.90;53.30;;;;;;6131136;23;20006;-92
2021/04/26 07:38:34;;;;;;;1.55;0.82;;;8.00;54.10;;;;;;6129425;23;20006;-93
2021/04/26 07:41:18;;;;;;;7.18;1.58;;;8.20;53.40;;;;;;6129337;23;20040;-94
2021/04/26 07:44:12;;;;;;;3.08;0.70;;;8.30;53.10;;;;;;6131260;23;20017;-93
2021/04/26 07:47:10;;;;;;;0.50;0.50;;;8.40;53.50;;;;;;6131351;23;20010;-94
2021/04/26 07:50:31;;;;;;;;;;;;;;;;;;;;;
2021/04/26 07:53:32;;;;;;;2.05;0.90;;;8.80;51.80;;;;;;6062764;23;20025;-93
2021/04/26 08:03:44;;;;;;;2.35;0.70;;;9.20;50.60;;;;;;6132779;23;20017;-93
2021/04/26 08:14:34;;;;;;;4.13;1.00;;;9.50;49.60;;;;;;6062031;23;20072;-93
2021/04/26 08:21:49;;;;;;;3.85;0.95;;;9.70;52.10;;;;;;5955087;24;20361;-93
2021/04/26 08:38:50;;;;;;;0.88;0.60;;;10.20;50.60;;;;;;5959593;24;20055;-94
2021/04/26 08:45:21;;;;;;;2.28;0.68;;;10.60;46.40;;;;;;5932212;24;20422;-93
2021/04/26 08:48:45;;;;;;;1.27;0.60;;;10.70;47.00;;;;;;5947001;23;20014;-94
2021/04/26 08:51:44;;;;;;;;;;;10.70;47.70;;;;;;6068717;23;20002;-94
2021/04/26 08:54:46;;;;;;;2.05;0.88;;;10.60;45.70;;;;;;6107451;23;19905;-95
2021/04/26 10:33:03;;;;;;;1.50;0.70;;;12.40;41.30;;;;;;6151211;23;20303;-92
2021/04/26 10:56:27;;;;;;;1.13;0.75;;;13.40;39.10;;;;;;5995286;24;20072;-96
2021/04/26 11:30:20;;;;;;;;;;;;;;;;;;;;;
2021/04/26 12:08:37;;;;;;;;;;;;;;;;;;;;;
2021/04/26 12:15:24;;;;;;;;;;;;;;;;;;;;;
2021/04/26 12:18:24;;;;;;;1.15;0.70;;;13.40;38.70;;;;;;5902580;24;20355;-94
2021/04/26 12:25:06;;;;;;;;;;;;;;;;;;;;;
2021/04/26 12:27:35;;;;;;;1.80;0.70;;;13.30;38.10;;;;;;6035188;23;20343;-92
2021/04/26 12:57:30;;;;;;;0.63;0.43;;;14.20;35.50;;;;;;6109713;23;20258;-93
2021/04/26 12:59:58;;;;;;;1.42;0.50;;;14.40;42.90;;;;;;6107473;23;20006;-91
2021/04/26 13:02:35;;;;;;;0.85;0.80;;;14.60;36.50;;;;;;6107136;23;20017;-93
2021/04/26 13:05:11;;;;;;;1.27;0.60;;;14.40;35.20;;;;;;6108020;23;20002;-92
2021/04/26 13:08:27;;;;;;;0.70;0.63;;;14.20;35.60;;;;;;6107247;23;20008;-93
2021/04/26 13:11:01;;;;;;;1.20;0.90;;;13.90;39.20;;;;;;6107360;23;20005;-90
2021/04/26 13:17:45;;;;;;;1.45;0.70;;;13.80;38.50;;;;;;6072508;23;20414;-92
2021/04/26 13:50:47;;;;;;;1.42;0.70;;;14.70;35.70;;;;;;6080936;23;20582;-93
2021/04/26 13:53:33;;;;;;;1.58;0.90;;;15.00;35.10;;;;;;6108239;23;19998;-93
2021/04/26 13:55:58;;;;;;;1.02;0.50;;;15.20;34.90;;;;;;6108208;23;20182;-91
2021/04/26 13:59:03;;;;;;;1.27;0.63;;;15.20;35.80;;;;;;6106699;23;20018;-95
2021/04/26 14:08:57;;;;;;;4.05;0.80;;;14.00;35.90;;;;;;6045918;23;20109;-92
2021/04/26 14:11:23;;;;;;;1.05;0.70;;;14.00;35.20;;;;;;6045459;23;20035;-92
2021/04/26 14:17:52;;;;;;;1.65;0.63;;;13.90;36.30;;;;;;6074639;23;20021;-94
2021/04/26 14:20:38;;;;;;;1.50;0.93;;;14.10;37.70;;;;;;6048844;23;20036;-92
2021/04/26 14:23:56;;;;;;;1.77;0.65;;;14.30;37.40;;;;;;6076336;23;20026;-96
2021/04/26 14:33:10;;;;;;;0.70;0.60;;;14.80;33.90;;;;;;6079522;23;20235;-92
2021/04/26 14:35:38;;;;;;;2.45;0.80;;;14.70;34.10;;;;;;6073125;23;20343;-92
2021/04/26 14:38:03;;;;;;;2.08;0.70;;;14.60;34.00;;;;;;6073765;23;20263;-89
2021/04/26 14:46:35;;;;;;;0.50;0.50;;;14.60;36.30;;;;;;6109295;23;20009;-94
2021/04/26 14:49:00;;;;;;;2.15;0.40;;;14.60;34.90;;;;;;6131898;23;20326;-93
2021/04/26 14:51:26;;;;;;;0.70;0.50;;;14.70;34.20;;;;;;6133230;23;20048;-92
2021/04/26 14:54:01;;;;;;;1.00;0.55;;;14.80;35.50;;;;;;6132271;23;20007;-95
2021/04/26 15:07:15;;;;;;;0.70;0.52;;;14.80;36.40;;;;;;6077595;23;20034;-91
2021/04/26 15:09:41;;;;;;;1.60;0.70;;;14.80;34.90;;;;;;6048001;23;20343;-93
2021/04/26 15:15:36;;;;;;;1.90;0.60;;;14.90;33.60;;;;;;6072285;23;20001;-94
2021/04/26 15:18:06;;;;;;;0.90;0.63;;;15.00;33.60;;;;;;6112356;23;20060;-91
2021/04/26 15:20:48;;;;;;;1.58;0.80;;;15.00;35.80;;;;;;6131913;23;20006;-92
2021/04/26 16:51:43;;;;;;;1.95;0.85;;;13.20;36.40;;;;;;6133728;23;20080;-93
2021/04/26 16:54:15;;;;;;;2.03;0.80;;;12.80;36.30;;;;;;6107878;23;20073;-92
2021/04/26 16:56:49;;;;;;;1.33;0.70;;;12.40;36.90;;;;;;6107270;23;20443;-92
2021/04/26 16:59:15;;;;;;;1.13;0.70;;;12.40;37.50;;;;;;6107677;23;20010;-91
2021/04/26 17:01:42;;;;;;;1.65;0.60;;;12.30;37.30;;;;;;6106507;23;20010;-91
2021/04/26 17:04:10;;;;;;;1.65;0.68;;;12.40;37.30;;;;;;6132499;23;20005;-91
2021/04/26 17:06:36;;;;;;;1.38;0.77;;;12.50;38.00;;;;;;6106953;23;20077;-91
2021/04/26 17:09:04;;;;;;;1.20;0.70;;;12.60;37.50;;;;;;6131007;23;20322;-91
2021/04/26 17:19:43;;;;;;;;;;;;;;;;;;;;;
2021/04/26 18:17:16;;;;;;;2.55;1.25;;;10.80;40.90;;;;;;5878129;24;20148;-94
2021/04/26 18:29:54;;;;;;;1.20;0.90;;;10.50;42.30;;;;;;5882594;24;20071;-94
